Time,TemperatureF,DewpointF,PressureIn,WindDirection,WindDirectionDegrees,WindSpeedMPH,WindSpeedGustMPH,Humidity,HourlyPrecipIn,Conditions,Clouds,dailyrainin,SoftwareType,DateUTC
2013-04-28 00:05:00,61.1,19.7,29.89,SW,214,2.0,3.0,20,0.00,,,0.00,Wunderground v.1.15,2013-04-28 06:05:00,
2013-04-28 00:15:00,60.5,26.3,29.89,NE,55,2.0,2.0,27,0.00,,,0.00,Wunderground v.1.15,2013-04-28 06:15:00,
2013-04-28 00:24:00,56.4,26.1,29.90,NE,55,0.0,1.0,31,0.00,,,0.00,Wunderground v.1.15,2013-04-28 06:24:00,
2013-04-28 00:30:00,54.6,25.3,29.90,NE,55,0.0,0.0,32,0.00,,,0.00,Wunderground v.1.15,2013-04-28 06:30:00,
2013-04-28 00:40:00,52.6,24.3,29.90,NE,55,0.0,1.0,33,0.00,,,0.00,Wunderground v.1.15,2013-04-28 06:40:00,
2013-04-28 00:50:00,51.7,20.4,29.91,NW,309,1.0,1.0,29,0.00,,,0.00,Wunderground v.1.15,2013-04-28 06:50:00,
2013-04-28 01:00:00,51.8,20.5,29.91,NW,311,1.0,1.0,29,0.00,,,0.00,Wunderground v.1.15,2013-04-28 07:00:00,
2013-04-28 01:05:00,51.5,21.0,29.91,NW,311,0.0,1.0,30,0.00,,,0.00,Wunderground v.1.15,2013-04-28 07:05:00,
2013-04-28 01:15:00,51.1,20.7,29.90,South,190,1.0,1.0,30,0.00,,,0.00,Wunderground v.1.15,2013-04-28 07:15:00,
2013-04-28 01:25:00,56.9,19.4,29.89,SSW,200,3.0,6.0,23,0.00,,,0.00,Wunderground v.1.15,2013-04-28 07:25:00,
2013-04-28 01:34:00,59.0,20.2,29.89,South,191,2.0,4.0,22,0.00,,,0.00,Wunderground v.1.15,2013-04-28 07:34:00,
2013-04-28 01:40:00,59.0,19.1,29.89,South,171,1.0,3.0,21,0.00,,,0.00,Wunderground v.1.15,2013-04-28 07:40:00,
2013-04-28 01:50:00,57.4,21.8,29.89,ESE,116,3.0,3.0,25,0.00,,,0.00,Wunderground v.1.15,2013-04-28 07:50:00,
2013-04-28 01:59:00,56.1,21.6,29.89,ESE,116,1.0,1.0,26,0.00,,,0.00,Wunderground v.1.15,2013-04-28 07:59:00,
2013-04-28 02:05:00,55.3,21.8,29.89,ESE,116,1.0,1.0,27,0.00,,,0.00,Wunderground v.1.15,2013-04-28 08:05:00,
2013-04-28 02:20:00,51.5,21.8,29.89,ESE,116,0.0,0.0,31,0.00,,,0.00,Wunderground v.1.15,2013-04-28 08:20:00,
2013-04-28 02:29:00,50.2,21.4,29.89,ESE,116,0.0,0.0,32,0.00,,,0.00,Wunderground v.1.15,2013-04-28 08:29:00,
2013-04-28 02:40:00,49.8,21.8,29.89,ESE,116,0.0,0.0,33,0.00,,,0.00,Wunderground v.1.15,2013-04-28 08:40:00,
2013-04-28 02:49:00,49.4,21.5,29.89,ESE,116,1.0,1.0,33,0.00,,,0.00,Wunderground v.1.15,2013-04-28 08:49:00,
2013-04-28 03:00:00,49.4,23.5,29.89,ESE,116,1.0,1.0,36,0.00,,,0.00,Wunderground v.1.15,2013-04-28 09:00:00,
2013-04-28 03:05:00,49.2,23.4,29.88,ESE,116,1.0,2.0,36,0.00,,,0.00,Wunderground v.1.15,2013-04-28 09:05:00,
2013-04-28 03:14:00,48.7,22.2,29.88,ESE,116,1.0,2.0,35,0.00,,,0.00,Wunderground v.1.15,2013-04-28 09:14:00,
2013-04-28 03:20:00,48.9,22.4,29.88,ESE,116,0.0,0.0,35,0.00,,,0.00,Wunderground v.1.15,2013-04-28 09:20:00,
2013-04-28 03:30:00,49.6,21.6,29.87,ESE,116,0.0,0.0,33,0.00,,,0.00,Wunderground v.1.15,2013-04-28 09:30:00,
2013-04-28 03:39:00,49.6,22.3,29.87,ESE,116,1.0,1.0,34,0.00,,,0.00,Wunderground v.1.15,2013-04-28 09:39:00,
2013-04-28 03:45:00,49.2,22.7,29.88,ESE,116,1.0,1.0,35,0.00,,,0.00,Wunderground v.1.15,2013-04-28 09:45:00,
2013-04-28 03:55:00,48.5,22.1,29.88,ESE,116,1.0,1.0,35,0.00,,,0.00,Wunderground v.1.15,2013-04-28 09:55:00,
2013-04-28 04:05:00,48.0,23.6,29.89,ESE,116,1.0,2.0,38,0.00,,,0.00,Wunderground v.1.15,2013-04-28 10:05:00,
2013-04-28 04:10:00,47.4,24.3,29.89,NW,311,2.0,2.0,40,0.00,,,0.00,Wunderground v.1.15,2013-04-28 10:10:00,
2013-04-28 04:19:00,45.9,25.2,29.90,NW,318,2.0,2.0,44,0.00,,,0.00,Wunderground v.1.15,2013-04-28 10:19:00,
2013-04-28 04:30:00,45.4,24.7,29.90,NW,312,2.0,2.0,44,0.00,,,0.00,Wunderground v.1.15,2013-04-28 10:30:00,
2013-04-28 04:40:00,45.2,24.6,29.90,NW,312,0.0,0.0,44,0.00,,,0.00,Wunderground v.1.15,2013-04-28 10:40:00,
2013-04-28 04:49:00,45.0,24.4,29.90,NW,312,0.0,0.0,44,0.00,,,0.00,Wunderground v.1.15,2013-04-28 10:49:00,
2013-04-28 05:00:00,44.2,24.2,29.90,NW,312,0.0,0.0,45,0.00,,,0.00,Wunderground v.1.15,2013-04-28 11:00:00,
2013-04-28 05:05:00,44.0,24.5,29.90,South,174,1.0,3.0,46,0.00,,,0.00,Wunderground v.1.15,2013-04-28 11:05:00,
2013-04-28 05:14:00,44.7,23.0,29.90,South,188,2.0,3.0,42,0.00,,,0.00,Wunderground v.1.15,2013-04-28 11:14:00,
2013-04-28 05:20:00,45.6,22.6,29.90,South,188,1.0,1.0,40,0.00,,,0.00,Wunderground v.1.15,2013-04-28 11:20:00,
2013-04-28 05:30:00,46.7,22.4,29.90,South,188,0.0,0.0,38,0.00,,,0.00,Wunderground v.1.15,2013-04-28 11:30:00,
2013-04-28 05:39:00,46.6,22.3,29.90,South,188,0.0,2.0,38,0.00,,,0.00,Wunderground v.1.15,2013-04-28 11:39:00,
2013-04-28 05:45:00,46.7,21.1,29.90,South,188,1.0,2.0,36,0.00,,,0.00,Wunderground v.1.15,2013-04-28 11:45:00,
2013-04-28 05:59:00,48.8,21.6,29.91,South,188,1.0,2.0,34,0.00,,,0.00,Wunderground v.1.15,2013-04-28 11:59:00,
2013-04-28 06:05:00,49.0,21.8,29.90,South,186,1.0,3.0,34,0.00,,,0.00,Wunderground v.1.15,2013-04-28 12:05:00,
2013-04-28 06:15:00,48.8,22.3,29.90,SE,127,1.0,2.0,35,0.00,,,0.00,Wunderground v.1.15,2013-04-28 12:15:00,
2013-04-28 06:25:00,48.1,22.4,29.90,SE,127,1.0,1.0,36,0.00,,,0.00,Wunderground v.1.15,2013-04-28 12:25:00,
2013-04-28 06:35:00,47.9,20.8,29.90,SSW,192,2.0,4.0,34,0.00,,,0.00,Wunderground v.1.15,2013-04-28 12:35:00,
2013-04-28 06:44:00,50.9,21.3,29.90,SE,140,2.0,5.0,31,0.00,,,0.00,Wunderground v.1.15,2013-04-28 12:44:00,
2013-04-28 06:50:00,52.0,21.5,29.90,SSE,156,3.0,5.0,30,0.00,,,0.00,Wunderground v.1.15,2013-04-28 12:50:00,
2013-04-28 07:00:00,53.5,22.0,29.90,ESE,114,3.0,3.0,29,0.00,,,0.00,Wunderground v.1.15,2013-04-28 13:00:00,
2013-04-28 07:05:00,54.1,22.5,29.90,ESE,117,4.0,4.0,29,0.00,,,0.00,Wunderground v.1.15,2013-04-28 13:05:00,
2013-04-28 07:15:00,53.9,26.1,29.90,NW,306,3.0,4.0,34,0.00,,,0.00,Wunderground v.1.15,2013-04-28 13:15:00,
2013-04-28 07:24:00,50.8,25.4,29.90,NW,306,1.0,2.0,37,0.00,,,0.00,Wunderground v.1.15,2013-04-28 13:24:00,
2013-04-28 07:35:00,50.9,24.9,29.90,WNW,301,0.0,0.0,36,0.00,,,0.00,Wunderground v.1.15,2013-04-28 13:35:00,
2013-04-28 07:45:00,52.5,24.9,29.90,WNW,301,0.0,0.0,34,0.00,,,0.00,Wunderground v.1.15,2013-04-28 13:45:00,
2013-04-28 07:50:00,53.8,28.1,29.90,NNE,19,0.0,0.0,37,0.00,,,0.00,Wunderground v.1.15,2013-04-28 13:50:00,
2013-04-28 07:59:00,53.9,28.8,29.90,NNE,32,2.0,2.0,38,0.00,,,0.00,Wunderground v.1.15,2013-04-28 13:59:00,
2013-04-28 08:05:00,53.6,28.6,29.91,NNE,32,1.0,2.0,38,0.00,,,0.00,Wunderground v.1.15,2013-04-28 14:05:00,
2013-04-28 08:14:00,54.2,28.5,29.91,ENE,78,1.0,1.0,37,0.00,,,0.00,Wunderground v.1.15,2013-04-28 14:14:00,
2013-04-28 08:25:00,54.9,28.4,29.91,ESE,111,1.0,1.0,36,0.00,,,0.00,Wunderground v.1.15,2013-04-28 14:25:00,
2013-04-28 08:35:00,55.1,29.9,29.91,East,86,2.0,2.0,38,0.00,,,0.00,Wunderground v.1.15,2013-04-28 14:35:00,
2013-04-28 08:44:00,56.2,28.9,29.91,NNE,22,1.0,3.0,35,0.00,,,0.00,Wunderground v.1.15,2013-04-28 14:44:00,
2013-04-28 08:50:00,56.6,29.9,29.91,NNE,22,1.0,3.0,36,0.00,,,0.00,Wunderground v.1.15,2013-04-28 14:50:00,
2013-04-28 09:05:00,58.8,29.7,29.91,NNE,22,1.0,2.0,33,0.00,,,0.00,Wunderground v.1.15,2013-04-28 15:05:00,
2013-04-28 09:14:00,59.8,27.4,29.90,East,91,3.0,6.0,29,0.00,,,0.00,Wunderground v.1.15,2013-04-28 15:14:00,
2013-04-28 09:20:00,60.6,26.4,29.90,ESE,115,4.0,6.0,27,0.00,,,0.00,Wunderground v.1.15,2013-04-28 15:20:00,
2013-04-28 09:29:00,61.6,26.3,29.90,ESE,109,4.0,6.0,26,0.00,,,0.00,Wunderground v.1.15,2013-04-28 15:29:00,
2013-04-28 09:34:00,61.9,26.6,29.90,East,81,5.0,6.0,26,0.00,,,0.00,Wunderground v.1.15,2013-04-28 15:34:00,
2013-04-28 09:45:00,62.8,25.4,29.89,ESE,108,4.0,4.0,24,0.00,,,0.00,Wunderground v.1.15,2013-04-28 15:45:00,
2013-04-28 09:54:00,63.9,26.4,29.89,East,92,2.0,3.0,24,0.00,,,0.00,Wunderground v.1.15,2013-04-28 15:54:00,
2013-04-28 10:05:00,64.4,26.8,29.89,ESE,111,3.0,5.0,24,0.00,,,0.00,Wunderground v.1.15,2013-04-28 16:05:00,
2013-04-28 10:10:00,64.8,27.1,29.89,East,82,3.0,4.0,24,0.00,,,0.00,Wunderground v.1.15,2013-04-28 16:10:00,
2013-04-28 10:19:00,65.6,27.8,29.88,ESE,109,2.0,2.0,24,0.00,,,0.00,Wunderground v.1.15,2013-04-28 16:19:00,
2013-04-28 10:30:00,66.3,27.4,29.88,NE,34,3.0,4.0,23,0.00,,,0.00,Wunderground v.1.15,2013-04-28 16:30:00,
2013-04-28 10:40:00,66.2,27.3,29.88,East,84,4.0,4.0,23,0.00,,,0.00,Wunderground v.1.15,2013-04-28 16:40:00,
2013-04-28 10:49:00,67.0,27.9,29.87,NE,40,2.0,2.0,23,0.00,,,0.00,Wunderground v.1.15,2013-04-28 16:49:00,
2013-04-28 11:00:00,67.6,27.4,29.87,ESE,103,2.0,2.0,22,0.00,,,0.00,Wunderground v.1.15,2013-04-28 17:00:00,
2013-04-28 11:05:00,67.7,27.5,29.87,East,91,2.0,2.0,22,0.00,,,0.00,Wunderground v.1.15,2013-04-28 17:05:00,
2013-04-28 11:15:00,67.9,26.5,29.86,SE,137,2.0,2.0,21,0.00,,,0.00,Wunderground v.1.15,2013-04-28 17:15:00,
2013-04-28 11:25:00,69.1,28.6,29.86,East,92,3.0,3.0,22,0.00,,,0.00,Wunderground v.1.15,2013-04-28 17:25:00,
2013-04-28 11:35:00,70.2,28.4,29.86,East,92,0.0,3.0,21,0.00,,,0.00,Wunderground v.1.15,2013-04-28 17:35:00,
2013-04-28 11:45:00,70.9,29.0,29.85,ESE,103,2.0,4.0,21,0.00,,,0.00,Wunderground v.1.15,2013-04-28 17:45:00,
2013-04-28 11:54:00,71.1,28.0,29.85,ESE,109,2.0,3.0,20,0.00,,,0.00,Wunderground v.1.15,2013-04-28 17:54:00,
2013-04-28 12:00:00,71.3,26.9,29.85,NNE,13,2.0,2.0,19,0.00,,,0.00,Wunderground v.1.15,2013-04-28 18:00:00,
2013-04-28 12:05:00,71.5,28.3,29.84,NNW,347,2.0,3.0,20,0.00,,,0.00,Wunderground v.1.15,2013-04-28 18:05:00,
2013-04-28 12:15:00,71.9,28.6,29.84,NE,52,4.0,4.0,20,0.00,,,0.00,Wunderground v.1.15,2013-04-28 18:15:00,
2013-04-28 12:24:00,72.3,27.7,29.84,NW,304,2.0,3.0,19,0.00,,,0.00,Wunderground v.1.15,2013-04-28 18:24:00,
2013-04-28 12:34:00,72.9,29.4,29.83,NNW,331,1.0,1.0,20,0.00,,,0.00,Wunderground v.1.15,2013-04-28 18:34:00,
2013-04-28 12:40:00,73.0,29.5,29.83,ENE,59,2.0,4.0,20,0.00,,,0.00,Wunderground v.1.15,2013-04-28 18:40:00,
2013-04-28 12:50:00,73.5,31.1,29.82,NW,312,3.0,3.0,21,0.00,,,0.00,Wunderground v.1.15,2013-04-28 18:50:00,
2013-04-28 12:55:00,73.8,31.4,29.81,NE,42,2.0,3.0,21,0.00,,,0.00,Wunderground v.1.15,2013-04-28 18:55:00,
2013-04-28 13:05:00,73.6,28.8,29.81,NE,44,2.0,2.0,19,0.00,,,0.00,Wunderground v.1.15,2013-04-28 19:05:00,
2013-04-28 13:20:00,75.1,31.3,29.80,NE,46,2.0,3.0,20,0.00,,,0.00,Wunderground v.1.15,2013-04-28 19:20:00,
2013-04-28 13:30:00,76.2,29.6,29.79,North,9,3.0,3.0,18,0.00,,,0.00,Wunderground v.1.15,2013-04-28 19:30:00,
2013-04-28 13:35:00,76.5,31.1,29.79,NNE,17,3.0,3.0,19,0.00,,,0.00,Wunderground v.1.15,2013-04-28 19:35:00,
2013-04-28 13:45:00,77.4,31.9,29.78,North,355,3.0,3.0,19,0.00,,,0.00,Wunderground v.1.15,2013-04-28 19:45:00,
2013-04-28 13:54:00,76.6,29.9,29.77,NE,40,4.0,7.0,18,0.00,,,0.00,Wunderground v.1.15,2013-04-28 19:54:00,
2013-04-28 14:00:00,76.6,31.2,29.77,North,9,3.0,3.0,19,0.00,,,0.00,Wunderground v.1.15,2013-04-28 20:00:00,
2013-04-28 14:05:00,77.4,33.2,29.77,NNE,15,3.0,4.0,20,0.00,,,0.00,Wunderground v.1.15,2013-04-28 20:05:00,
2013-04-28 14:19:00,78.6,31.5,29.76,NNE,30,4.0,4.0,18,0.00,,,0.00,Wunderground v.1.15,2013-04-28 20:19:00,
2013-04-28 14:30:00,78.8,31.7,29.75,NW,323,4.0,4.0,18,0.00,,,0.00,Wunderground v.1.15,2013-04-28 20:30:00,
2013-04-28 14:50:00,80.0,31.2,29.74,NNE,12,4.0,5.0,17,0.00,,,0.00,Wunderground v.1.15,2013-04-28 20:50:00,
2013-04-28 14:59:00,79.6,29.4,29.74,North,5,3.0,3.0,16,0.00,,,0.00,Wunderground v.1.15,2013-04-28 20:59:00,
2013-04-28 15:05:00,80.3,30.0,29.73,NNW,333,4.0,4.0,16,0.00,,,0.00,Wunderground v.1.15,2013-04-28 21:05:00,
2013-04-28 15:15:00,80.4,30.1,29.73,NNE,24,4.0,4.0,16,0.00,,,0.00,Wunderground v.1.15,2013-04-28 21:15:00,
2013-04-28 15:25:00,80.4,30.1,29.72,NW,309,3.0,4.0,16,0.00,,,0.00,Wunderground v.1.15,2013-04-28 21:25:00,
2013-04-28 15:30:00,80.8,30.4,29.72,NW,306,4.0,6.0,16,0.00,,,0.00,Wunderground v.1.15,2013-04-28 21:30:00,
2013-04-28 15:39:00,80.2,31.4,29.71,NE,53,3.0,3.0,17,0.00,,,0.00,Wunderground v.1.15,2013-04-28 21:39:00,
2013-04-28 15:45:00,80.9,32.0,29.70,NE,49,2.0,3.0,17,0.00,,,0.00,Wunderground v.1.15,2013-04-28 21:45:00,
2013-04-28 15:54:00,81.1,32.1,29.70,NNE,32,3.0,6.0,17,0.00,,,0.00,Wunderground v.1.15,2013-04-28 21:54:00,
2013-04-28 16:05:00,80.7,30.3,29.69,ENE,60,5.0,8.0,16,0.00,,,0.00,Wunderground v.1.15,2013-04-28 22:05:00,
2013-04-28 16:10:00,80.1,29.8,29.69,East,100,4.0,5.0,16,0.00,,,0.00,Wunderground v.1.15,2013-04-28 22:10:00,
2013-04-28 16:20:00,81.2,30.7,29.69,WSW,239,2.0,5.0,16,0.00,,,0.00,Wunderground v.1.15,2013-04-28 22:20:00,
2013-04-28 16:30:00,80.8,28.8,29.68,WSW,255,5.0,5.0,15,0.00,,,0.00,Wunderground v.1.15,2013-04-28 22:30:00,
2013-04-28 16:39:00,81.3,29.2,29.68,SW,222,2.0,4.0,15,0.00,,,0.00,Wunderground v.1.15,2013-04-28 22:39:00,
2013-04-28 16:49:00,81.9,29.7,29.67,South,186,3.0,3.0,15,0.00,,,0.00,Wunderground v.1.15,2013-04-28 22:49:00,
2013-04-28 16:54:00,81.9,31.3,29.67,WSW,244,3.0,6.0,16,0.00,,,0.00,Wunderground v.1.15,2013-04-28 22:54:00,
2013-04-28 17:00:00,81.7,29.5,29.67,NW,313,4.0,9.0,15,0.00,,,0.00,Wunderground v.1.15,2013-04-28 23:00:00,
2013-04-28 17:10:00,81.6,27.8,29.66,SW,221,3.0,3.0,14,0.00,,,0.00,Wunderground v.1.15,2013-04-28 23:10:00,
2013-04-28 17:15:00,81.2,29.1,29.67,West,272,4.0,4.0,15,0.00,,,0.00,Wunderground v.1.15,2013-04-28 23:15:00,
2013-04-28 17:25:00,80.9,28.9,29.67,SW,224,3.0,3.0,15,0.00,,,0.00,Wunderground v.1.15,2013-04-28 23:25:00,
2013-04-28 17:35:00,81.1,27.4,29.67,South,185,2.0,3.0,14,0.00,,,0.00,Wunderground v.1.15,2013-04-28 23:35:00,
2013-04-28 17:45:00,79.8,28.0,29.66,West,263,5.0,6.0,15,0.00,,,0.00,Wunderground v.1.15,2013-04-28 23:45:00,
2013-04-28 17:55:00,79.9,28.1,29.66,WNW,289,4.0,4.0,15,0.00,,,0.00,Wunderground v.1.15,2013-04-28 23:55:00,
2013-04-28 18:00:00,80.2,26.7,29.66,SSW,197,3.0,3.0,14,0.00,,,0.00,Wunderground v.1.15,2013-04-29 00:00:00,
2013-04-28 18:05:00,80.3,26.7,29.66,SW,230,3.0,4.0,14,0.00,,,0.00,Wunderground v.1.15,2013-04-29 00:05:00,
2013-04-28 18:14:00,79.5,26.1,29.65,SW,229,4.0,6.0,14,0.00,,,0.00,Wunderground v.1.15,2013-04-29 00:14:00,
2013-04-28 18:20:00,79.3,25.9,29.65,West,264,3.0,3.0,14,0.00,,,0.00,Wunderground v.1.15,2013-04-29 00:20:00,
2013-04-28 18:25:00,78.8,25.5,29.65,SSW,211,4.0,4.0,14,0.00,,,0.00,Wunderground v.1.15,2013-04-29 00:25:00,
2013-04-28 18:35:00,78.7,25.5,29.65,SSW,205,4.0,8.0,14,0.00,,,0.00,Wunderground v.1.15,2013-04-29 00:35:00,
2013-04-28 18:44:00,77.7,26.3,29.64,West,281,5.0,10.0,15,0.00,,,0.00,Wunderground v.1.15,2013-04-29 00:44:00,
2013-04-28 18:49:00,77.5,26.2,29.64,SW,224,3.0,3.0,15,0.00,,,0.00,Wunderground v.1.15,2013-04-29 00:49:00,
2013-04-28 18:54:00,77.1,25.9,29.64,West,265,3.0,5.0,15,0.00,,,0.00,Wunderground v.1.15,2013-04-29 00:54:00,
2013-04-28 19:00:00,76.6,27.0,29.64,SW,227,6.0,6.0,16,0.00,,,0.00,Wunderground v.1.15,2013-04-29 01:00:00,
2013-04-28 19:05:00,76.3,26.8,29.64,SW,217,5.0,6.0,16,0.00,,,0.00,Wunderground v.1.15,2013-04-29 01:05:00,
2013-04-28 19:14:00,75.8,27.8,29.64,West,281,2.0,7.0,17,0.00,,,0.00,Wunderground v.1.15,2013-04-29 01:14:00,
2013-04-28 19:24:00,75.4,26.1,29.64,SSW,213,2.0,4.0,16,0.00,,,0.00,Wunderground v.1.15,2013-04-29 01:24:00,
2013-04-28 19:29:00,75.2,27.4,29.64,SSW,204,1.0,1.0,17,0.00,,,0.00,Wunderground v.1.15,2013-04-29 01:29:00,
2013-04-28 19:35:00,75.0,27.2,29.64,West,281,1.0,2.0,17,0.00,,,0.00,Wunderground v.1.15,2013-04-29 01:35:00,
2013-04-28 19:45:00,74.9,27.1,29.64,SSW,194,2.0,2.0,17,0.00,,,0.00,Wunderground v.1.15,2013-04-29 01:45:00,
2013-04-28 19:54:00,74.6,26.9,29.64,NNW,343,2.0,2.0,17,0.00,,,0.00,Wunderground v.1.15,2013-04-29 01:54:00,
2013-04-28 19:59:00,74.6,26.9,29.64,SW,229,2.0,4.0,17,0.00,,,0.00,Wunderground v.1.15,2013-04-29 01:59:00,
2013-04-28 20:05:00,74.5,26.8,29.64,West,277,2.0,4.0,17,0.00,,,0.00,Wunderground v.1.15,2013-04-29 02:05:00,
2013-04-28 20:14:00,74.1,26.5,29.64,SSW,211,1.0,3.0,17,0.00,,,0.00,Wunderground v.1.15,2013-04-29 02:14:00,
2013-04-28 20:25:00,73.9,26.3,29.63,SSW,206,2.0,2.0,17,0.00,,,0.00,Wunderground v.1.15,2013-04-29 02:25:00,
2013-04-28 20:30:00,73.8,26.2,29.63,SSW,206,2.0,2.0,17,0.00,,,0.00,Wunderground v.1.15,2013-04-29 02:30:00,
2013-04-28 20:45:00,74.1,26.5,29.64,SSW,198,2.0,3.0,17,0.00,,,0.00,Wunderground v.1.15,2013-04-29 02:45:00,
2013-04-28 20:59:00,73.7,26.1,29.64,WSW,238,3.0,3.0,17,0.00,,,0.00,Wunderground v.1.15,2013-04-29 02:59:00,
2013-04-28 21:05:00,73.7,26.1,29.64,SW,228,4.0,4.0,17,0.00,,,0.00,Wunderground v.1.15,2013-04-29 03:05:00,
2013-04-28 21:14:00,74.0,26.4,29.65,West,265,6.0,10.0,17,0.00,,,0.00,Wunderground v.1.15,2013-04-29 03:14:00,
2013-04-28 21:19:00,74.1,26.5,29.65,WNW,284,5.0,9.0,17,0.00,,,0.00,Wunderground v.1.15,2013-04-29 03:19:00,
2013-04-28 21:25:00,74.0,26.4,29.65,SW,216,5.0,9.0,17,0.00,,,0.00,Wunderground v.1.15,2013-04-29 03:25:00,
2013-04-28 21:30:00,74.0,26.4,29.65,SW,221,5.0,5.0,17,0.00,,,0.00,Wunderground v.1.15,2013-04-29 03:30:00,
2013-04-28 21:45:00,73.7,26.1,29.65,SW,227,3.0,3.0,17,0.00,,,0.00,Wunderground v.1.15,2013-04-29 03:45:00,
2013-04-28 21:55:00,73.4,27.3,29.66,WNW,300,2.0,2.0,18,0.00,,,0.00,Wunderground v.1.15,2013-04-29 03:55:00,
2013-04-28 22:05:00,72.0,27.5,29.66,WNW,296,2.0,2.0,19,0.00,,,0.00,Wunderground v.1.15,2013-04-29 04:05:00,
2013-04-28 22:09:00,71.8,27.3,29.66,WNW,295,1.0,1.0,19,0.00,,,0.00,Wunderground v.1.15,2013-04-29 04:09:00,
2013-04-28 22:14:00,71.7,27.2,29.66,WNW,293,1.0,1.0,19,0.00,,,0.00,Wunderground v.1.15,2013-04-29 04:14:00,
2013-04-28 22:20:00,71.4,27.0,29.66,SW,218,1.0,5.0,19,0.00,,,0.00,Wunderground v.1.15,2013-04-29 04:20:00,
2013-04-28 22:25:00,71.4,27.0,29.66,WSW,249,3.0,5.0,19,0.00,,,0.00,Wunderground v.1.15,2013-04-29 04:25:00,
2013-04-28 22:30:00,71.0,27.9,29.66,NW,308,3.0,3.0,20,0.00,,,0.00,Wunderground v.1.15,2013-04-29 04:30:00,
2013-04-28 22:35:00,70.1,27.1,29.66,SW,223,2.0,4.0,20,0.00,,,0.00,Wunderground v.1.15,2013-04-29 04:35:00,
2013-04-28 22:45:00,71.0,27.9,29.66,SW,219,4.0,7.0,20,0.00,,,0.00,Wunderground v.1.15,2013-04-29 04:45:00,
2013-04-28 22:54:00,70.5,27.5,29.66,NW,304,2.0,2.0,20,0.00,,,0.00,Wunderground v.1.15,2013-04-29 04:54:00,
2013-04-28 23:05:00,68.3,28.0,29.66,NW,304,0.0,0.0,22,0.00,,,0.00,Wunderground v.1.15,2013-04-29 05:05:00,
2013-04-28 23:10:00,67.3,27.1,29.66,NW,304,0.0,0.0,22,0.00,,,0.00,Wunderground v.1.15,2013-04-29 05:10:00,
2013-04-28 23:20:00,67.2,28.1,29.66,WSW,238,0.0,0.0,23,0.00,,,0.00,Wunderground v.1.15,2013-04-29 05:20:00,
2013-04-28 23:34:00,65.9,28.1,29.66,WSW,238,0.0,0.0,24,0.00,,,0.00,Wunderground v.1.15,2013-04-29 05:34:00,
2013-04-28 23:40:00,65.3,27.5,29.66,WSW,238,0.0,0.0,24,0.00,,,0.00,Wunderground v.1.15,2013-04-29 05:40:00,
2013-04-28 23:49:00,66.1,28.2,29.66,WSW,238,1.0,1.0,24,0.00,,,0.00,Wunderground v.1.15,2013-04-29 05:49:00,
2013-04-28 23:54:00,66.2,28.3,29.67,WSW,238,0.0,1.0,24,0.00,,,0.00,Wunderground v.1.15,2013-04-29 05:54:00,